Panorama, Canada
Current Conditions -  °F | °C
As of 3:00 PM on Wednesday 22 Oct 2014 (Local Time) from CYXC Reporting Station
Rain Showers Rain Showers  
Wind Chill: 52°   Ceiling: 5500
Heat Index: 52°   Visibility: 25mi
Dew Point: 37°   Wind: 10mph
Humidity: 58%   Direction: 150°SSE
Pressure: 29.87"   Gusts: NA
Location:  50.46°N, 116.24°W
Report Text: CYXC 222100Z 15009KT 120V190 25SM VCSH OVC055 11/03 A2987 RMK SC8 SLP123 DENSITY ALT 3300FT
Loading
Personal Weather Stations






























Interactive Weather Map
Tropical Storm Tracking
New forecast layout! Learn more

10-Day Weather Forecast

Advertisements
Track Severe Weather on mobile